Time;durP1;ratioP1;P1;durP2;ratioP2;P2;SDS_P1;SDS_P2;PMS_P1;PMS_P2;Temp;Humidity;BMP_temperature;BMP_pressure;BME280_temperature;BME280_humidity;BME280_pressure;Samples;Min_cycle;Max_cycle;Signal;HPM_P1;HPM_P2
2023/01/03 00:00:48;;;;;;;9.73;3.17;;;4.30;99.90;;;;;;5075073;28;20047;-72
2023/01/03 00:03:16;;;;;;;6.68;3.30;;;4.30;99.90;;;;;;5058524;28;20417;-71
2023/01/03 00:05:43;;;;;;;8.32;3.35;;;4.30;99.90;;;;;;5058447;28;20066;-72
2023/01/03 00:08:09;;;;;;;10.02;3.78;;;4.30;99.90;;;;;;5074758;28;20505;-71
2023/01/03 00:10:34;;;;;;;11.07;3.58;;;4.30;99.90;;;;;;5074794;28;20037;-71
2023/01/03 00:13:00;;;;;;;11.20;3.65;;;4.20;99.90;;;;;;5075177;28;20121;-71
2023/01/03 00:15:25;;;;;;;7.40;3.08;;;4.30;99.90;;;;;;5074826;28;20072;-71
2023/01/03 00:17:52;;;;;;;16.10;6.78;;;4.20;99.90;;;;;;5074858;28;20062;-72
2023/01/03 00:20:17;;;;;;;13.43;5.95;;;4.20;99.90;;;;;;5074571;28;20043;-72
2023/01/03 00:22:43;;;;;;;14.23;5.05;;;4.20;99.90;;;;;;5074557;28;20041;-72
2023/01/03 00:25:09;;;;;;;10.88;4.63;;;4.20;99.90;;;;;;5074545;28;20037;-72
2023/01/03 00:27:34;;;;;;;13.75;5.13;;;4.10;99.90;;;;;;5074690;28;20036;-71
2023/01/03 00:30:00;;;;;;;12.60;5.18;;;4.10;99.90;;;;;;5074437;28;20417;-71
2023/01/03 00:32:26;;;;;;;12.55;5.57;;;4.10;99.90;;;;;;5074659;28;20127;-71
2023/01/03 00:34:51;;;;;;;13.57;5.25;;;4.10;99.90;;;;;;5074576;28;20454;-71
2023/01/03 00:37:17;;;;;;;14.70;6.03;;;4.00;99.90;;;;;;5057589;28;20051;-71
2023/01/03 00:39:43;;;;;;;14.05;5.85;;;4.00;99.90;;;;;;5074452;28;20047;-71
2023/01/03 00:42:09;;;;;;;13.85;6.53;;;3.90;99.90;;;;;;5074532;28;20527;-72
2023/01/03 00:44:34;;;;;;;14.43;7.22;;;3.80;99.90;;;;;;5074450;28;20406;-71
2023/01/03 00:47:00;;;;;;;11.95;6.93;;;3.80;99.90;;;;;;5074027;28;20512;-71
2023/01/03 00:49:25;;;;;;;17.58;7.70;;;3.80;99.90;;;;;;5057250;28;20155;-72
2023/01/03 00:51:52;;;;;;;18.10;8.82;;;3.80;99.90;;;;;;5074359;28;20044;-72
2023/01/03 00:54:20;;;;;;;20.95;8.65;;;3.70;99.90;;;;;;5074237;28;20127;-71
2023/01/03 00:56:47;;;;;;;21.58;8.85;;;3.70;99.90;;;;;;5073801;28;20390;-71
2023/01/03 00:59:15;;;;;;;14.85;7.90;;;3.70;99.90;;;;;;5073887;28;20044;-71
2023/01/03 01:01:52;;;;;;;15.65;8.25;;;3.70;99.90;;;;;;5073230;28;20041;-71
2023/01/03 01:04:21;;;;;;;15.32;8.13;;;3.70;99.90;;;;;;5073821;28;20106;-71
2023/01/03 01:06:51;;;;;;;19.58;9.02;;;3.60;99.90;;;;;;5073675;28;20098;-71
2023/01/03 01:09:22;;;;;;;14.40;7.55;;;3.60;99.90;;;;;;5073714;28;20037;-72
2023/01/03 01:11:48;;;;;;;14.95;8.05;;;3.60;99.90;;;;;;5073948;28;20044;-71
2023/01/03 01:14:20;;;;;;;20.52;8.10;;;3.60;99.90;;;;;;5073599;28;20044;-72
2023/01/03 01:16:58;;;;;;;16.00;8.23;;;3.60;99.90;;;;;;5073502;28;20468;-71
2023/01/03 01:19:39;;;;;;;15.70;8.48;;;3.60;99.90;;;;;;5073879;28;20044;-72
2023/01/03 01:22:05;;;;;;;16.35;8.70;;;3.60;99.90;;;;;;5056694;28;20070;-72
2023/01/03 01:24:31;;;;;;;14.75;8.35;;;3.60;99.90;;;;;;5073367;28;20511;-71
2023/01/03 01:26:56;;;;;;;16.67;8.60;;;3.60;99.90;;;;;;5073505;28;20040;-71
2023/01/03 01:29:22;;;;;;;16.98;8.73;;;3.60;99.90;;;;;;5073269;28;20397;-72
2023/01/03 01:31:48;;;;;;;16.45;9.05;;;3.60;99.90;;;;;;5073502;28;20040;-72
2023/01/03 01:34:14;;;;;;;15.40;9.00;;;3.50;99.90;;;;;;5073419;28;20047;-71
2023/01/03 01:36:41;;;;;;;17.77;9.60;;;3.50;99.90;;;;;;5073327;28;20508;-71
2023/01/03 01:39:13;;;;;;;17.33;9.18;;;3.50;99.90;;;;;;5073078;28;20189;-71
2023/01/03 01:44:39;;;;;;;18.17;10.75;;;3.40;99.90;;;;;;5073006;28;20040;-71
2023/01/03 01:47:19;;;;;;;18.10;10.77;;;3.40;99.90;;;;;;5073119;28;20064;-71
2023/01/03 01:49:47;;;;;;;20.85;11.23;;;3.40;99.90;;;;;;5072773;28;20075;-72
2023/01/03 01:52:16;;;;;;;23.35;11.98;;;3.40;99.90;;;;;;5056180;28;20501;-72
2023/01/03 01:54:42;;;;;;;19.75;11.25;;;3.40;99.90;;;;;;5073021;28;20040;-71
2023/01/03 01:57:13;;;;;;;17.80;11.57;;;3.40;99.90;;;;;;5072655;28;20040;-71
2023/01/03 01:59:39;;;;;;;17.45;10.73;;;3.40;99.90;;;;;;5072703;28;20146;-71
2023/01/03 02:02:04;;;;;;;20.23;11.38;;;3.40;99.90;;;;;;5072567;28;20590;-71
2023/01/03 02:04:35;;;;;;;19.85;11.23;;;3.40;99.90;;;;;;5072856;28;20043;-71
2023/01/03 02:07:02;;;;;;;20.83;10.82;;;3.30;99.90;;;;;;5072486;28;20044;-71
2023/01/03 02:09:31;;;;;;;18.27;10.88;;;3.30;99.90;;;;;;5072581;28;20072;-71
2023/01/03 02:15:19;;;;;;;;;;;3.30;99.90;;;;;;5072071;28;20044;-71
2023/01/03 02:18:03;;;;;;;22.95;11.40;;;3.20;99.90;;;;;;5072584;28;20323;-71
2023/01/03 02:20:46;;;;;;;19.50;11.85;;;3.20;99.90;;;;;;5072479;28;20475;-71
2023/01/03 02:23:27;;;;;;;;;;;3.20;99.90;;;;;;5073071;28;20536;-72
2023/01/03 02:26:20;;;;;;;25.52;11.85;;;3.20;99.90;;;;;;5055590;28;19963;-71
2023/01/03 02:29:24;;;;;;;19.25;11.60;;;3.20;99.90;;;;;;5055534;28;20039;-71
2023/01/03 02:31:59;;;;;;;23.40;12.40;;;3.10;99.90;;;;;;5055725;28;20044;-72
2023/01/03 02:34:38;;;;;;;26.30;12.48;;;3.20;99.90;;;;;;5072448;28;20314;-71
2023/01/03 02:37:18;;;;;;;26.33;14.13;;;3.20;99.90;;;;;;5055412;28;20051;-71
2023/01/03 02:39:57;;;;;;;21.98;12.82;;;3.20;99.90;;;;;;5072360;28;20060;-72
2023/01/03 02:43:00;;;;;;;27.80;13.82;;;3.20;99.90;;;;;;5055356;28;20086;-72
2023/01/03 02:45:50;;;;;;;25.02;14.38;;;3.10;99.90;;;;;;5072296;28;20575;-71
2023/01/03 02:48:16;;;;;;;27.25;13.82;;;3.20;99.90;;;;;;5055038;28;20040;-71
2023/01/03 02:50:47;;;;;;;25.40;13.80;;;3.20;99.90;;;;;;5071942;28;20048;-72
2023/01/03 02:53:20;;;;;;;21.92;13.80;;;3.30;99.90;;;;;;5055257;28;20041;-72
2023/01/03 02:55:48;;;;;;;;;;;3.30;99.90;;;;;;5072357;28;20048;-71
2023/01/03 02:58:18;;;;;;;24.45;13.20;;;3.20;99.90;;;;;;5072087;28;19916;-71
2023/01/03 03:00:48;;;;;;;24.13;13.25;;;3.20;99.90;;;;;;5071784;28;20083;-71
2023/01/03 03:03:18;;;;;;;22.13;13.50;;;3.20;99.90;;;;;;5072278;28;20451;-71
2023/01/03 03:05:58;;;;;;;24.73;13.68;;;3.20;99.90;;;;;;5071765;28;20123;-71
2023/01/03 03:08:24;;;;;;;21.00;13.57;;;3.20;99.90;;;;;;5071700;28;20405;-71
2023/01/03 03:13:42;;;;;;;24.73;14.18;;;3.20;99.90;;;;;;5072038;28;20053;-71
2023/01/03 03:25:09;;;;;;;25.80;15.20;;;3.10;99.90;;;;;;5072296;28;20036;-71
2023/01/03 03:30:25;;;;;;;29.75;15.23;;;3.00;99.90;;;;;;5075574;28;20497;-72
2023/01/03 03:32:54;;;;;;;29.92;13.98;;;3.10;99.90;;;;;;5075561;28;20044;-71
2023/01/03 03:35:23;;;;;;;25.63;14.38;;;3.00;99.90;;;;;;5075456;28;20040;-72
2023/01/03 03:37:54;;;;;;;22.85;13.95;;;3.10;99.90;;;;;;5075364;28;20101;-71
2023/01/03 03:46:34;;;;;;;22.73;14.82;;;3.20;99.90;;;;;;5018369;28;20041;-71
2023/01/03 03:52:01;;;;;;;26.85;14.90;;;3.10;99.90;;;;;;5017831;28;20049;-71
2023/01/03 03:54:28;;;;;;;28.20;14.35;;;3.10;99.90;;;;;;5017786;28;20041;-71
2023/01/03 03:57:03;;;;;;;27.73;16.20;;;3.10;99.90;;;;;;5001476;28;20115;-71
2023/01/03 03:59:31;;;;;;;25.75;14.93;;;3.10;99.90;;;;;;5017763;28;20045;-72
2023/01/03 04:01:59;;;;;;;30.58;15.50;;;3.20;99.90;;;;;;5001214;28;20038;-71
2023/01/03 04:04:30;;;;;;;26.42;15.35;;;3.20;99.90;;;;;;5017606;28;20502;-72
2023/01/03 04:06:56;;;;;;;28.42;16.77;;;3.30;99.90;;;;;;5017586;28;20041;-71
2023/01/03 04:09:21;;;;;;;30.10;17.58;;;3.20;99.90;;;;;;5017802;28;20057;-71
2023/01/03 04:11:47;;;;;;;26.58;16.75;;;3.30;99.90;;;;;;5017509;28;20480;-71
2023/01/03 04:14:13;;;;;;;30.33;18.73;;;3.30;99.90;;;;;;5034078;28;20124;-71
2023/01/03 04:16:39;;;;;;;34.50;18.13;;;3.30;99.90;;;;;;5017267;28;20132;-71
2023/01/03 04:19:05;;;;;;;29.55;18.20;;;3.30;99.90;;;;;;5017371;28;20064;-71
2023/01/03 04:21:31;;;;;;;31.15;18.40;;;3.30;99.90;;;;;;5022885;28;20083;-71
2023/01/03 04:23:57;;;;;;;34.53;17.98;;;3.30;99.90;;;;;;5057923;28;20036;-71
2023/01/03 04:26:23;;;;;;;31.80;19.65;;;3.30;99.90;;;;;;5074477;28;20043;-71
2023/01/03 04:28:48;;;;;;;33.35;19.90;;;3.30;99.90;;;;;;5074795;28;20128;-72
2023/01/03 04:31:14;;;;;;;34.00;20.20;;;3.30;99.90;;;;;;5074409;28;20040;-71
2023/01/03 04:33:39;;;;;;;30.50;19.25;;;3.30;99.90;;;;;;5074398;28;20053;-71
2023/01/03 04:36:05;;;;;;;33.70;18.63;;;3.30;99.90;;;;;;5074507;28;20043;-72
2023/01/03 04:38:31;;;;;;;34.83;19.27;;;3.30;99.90;;;;;;5073950;28;20489;-71
2023/01/03 04:41:03;;;;;;;32.67;19.23;;;3.30;99.90;;;;;;5074173;28;20415;-71
2023/01/03 04:46:13;;;;;;;33.80;20.52;;;3.30;99.90;;;;;;5074105;28;20485;-70
2023/01/03 04:48:38;;;;;;;28.40;18.58;;;3.40;99.90;;;;;;5057327;28;20033;-71
2023/01/03 04:51:04;;;;;;;28.05;17.63;;;3.40;99.90;;;;;;5057437;28;20094;-72
2023/01/03 04:53:29;;;;;;;30.42;19.00;;;3.40;99.90;;;;;;5073990;28;20044;-72
2023/01/03 04:55:58;;;;;;;30.45;18.88;;;3.50;99.90;;;;;;5073982;28;20460;-71
2023/01/03 04:58:24;;;;;;;29.33;19.08;;;3.50;99.90;;;;;;5073905;28;20044;-71
2023/01/03 05:00:50;;;;;;;32.00;18.98;;;3.40;99.90;;;;;;5074642;28;20052;-71
2023/01/03 05:03:16;;;;;;;30.67;19.13;;;3.50;99.90;;;;;;5074094;28;20033;-71
2023/01/03 05:05:41;;;;;;;30.42;18.10;;;3.50;99.90;;;;;;5073797;28;20048;-72
2023/01/03 05:08:08;;;;;;;31.60;18.80;;;3.50;99.90;;;;;;5073676;28;20041;-71
2023/01/03 05:10:36;;;;;;;39.75;20.73;;;3.50;99.90;;;;;;5073741;28;20040;-72
2023/01/03 05:13:02;;;;;;;34.28;19.73;;;3.50;99.90;;;;;;5073664;28;20505;-71
2023/01/03 05:15:29;;;;;;;34.33;19.35;;;3.50;99.90;;;;;;5073584;28;20044;-71
2023/01/03 05:17:55;;;;;;;36.10;19.85;;;3.50;99.90;;;;;;5073721;28;20067;-71
2023/01/03 05:25:52;;;;;;;30.85;19.67;;;3.50;99.90;;;;;;5073383;28;20557;-72
2023/01/03 05:28:20;;;;;;;35.65;20.48;;;3.50;99.90;;;;;;5073297;28;20115;-71
2023/01/03 05:30:46;;;;;;;33.92;19.05;;;3.50;99.90;;;;;;5073290;28;20040;-71
2023/01/03 05:33:11;;;;;;;30.55;20.23;;;3.50;99.90;;;;;;5073219;28;20044;-71
2023/01/03 05:35:37;;;;;;;30.48;18.40;;;3.40;99.90;;;;;;5073196;28;20080;-71
2023/01/03 05:38:03;;;;;;;29.65;19.17;;;3.40;99.90;;;;;;5073067;28;20405;-71
2023/01/03 05:40:28;;;;;;;29.35;17.65;;;3.40;99.90;;;;;;5073230;28;20097;-72
2023/01/03 05:42:54;;;;;;;27.42;18.33;;;3.40;99.90;;;;;;5073039;28;20432;-71
2023/01/03 05:45:24;;;;;;;28.77;18.02;;;3.40;99.90;;;;;;5073251;28;20040;-71
2023/01/03 05:47:50;;;;;;;32.70;19.02;;;3.30;99.90;;;;;;5072820;28;20497;-71
2023/01/03 05:50:16;;;;;;;27.90;16.80;;;3.30;99.90;;;;;;5072883;28;20440;-71
2023/01/03 05:52:42;;;;;;;30.38;17.83;;;3.30;99.90;;;;;;5073120;28;20043;-71
2023/01/03 05:55:08;;;;;;;29.02;17.75;;;3.20;99.90;;;;;;5072782;28;20055;-71
2023/01/03 05:57:33;;;;;;;33.03;17.80;;;3.20;99.90;;;;;;5056112;28;20121;-71
2023/01/03 05:59:59;;;;;;;30.85;18.38;;;3.20;99.90;;;;;;5072664;28;20480;-71
2023/01/03 06:02:25;;;;;;;24.55;15.90;;;3.20;99.90;;;;;;5072667;28;20043;-71
2023/01/03 06:04:50;;;;;;;29.98;17.48;;;3.20;99.90;;;;;;5072889;28;20074;-71
2023/01/03 06:07:16;;;;;;;30.20;17.13;;;3.10;99.90;;;;;;5072498;28;20493;-71
2023/01/03 06:09:41;;;;;;;27.83;16.23;;;3.10;99.90;;;;;;5072539;28;20036;-72
2023/01/03 06:12:07;;;;;;;24.67;16.30;;;3.10;99.90;;;;;;5072499;28;20044;-71
2023/01/03 06:14:32;;;;;;;24.98;15.35;;;3.10;99.90;;;;;;5072445;28;20090;-72
2023/01/03 06:19:42;;;;;;;26.20;15.57;;;3.00;99.90;;;;;;5072415;28;20040;-71
2023/01/03 06:22:07;;;;;;;27.63;16.88;;;2.90;99.90;;;;;;5072269;28;20048;-72
2023/01/03 06:24:33;;;;;;;23.33;15.77;;;2.90;99.90;;;;;;5072546;28;20131;-72
2023/01/03 06:26:58;;;;;;;30.50;17.63;;;2.90;99.90;;;;;;5055821;28;20068;-71
2023/01/03 06:29:24;;;;;;;26.45;15.80;;;2.90;99.90;;;;;;5072246;28;20485;-71
2023/01/03 06:31:50;;;;;;;28.02;17.80;;;2.90;99.90;;;;;;5072245;28;20040;-72
2023/01/03 06:34:15;;;;;;;26.92;17.40;;;2.90;99.90;;;;;;5072133;28;20044;-71
2023/01/03 06:36:41;;;;;;;28.45;17.08;;;2.90;99.90;;;;;;5072044;28;20043;-71
2023/01/03 06:39:07;;;;;;;28.38;17.70;;;2.90;99.90;;;;;;5072106;28;20032;-71
2023/01/03 06:41:33;;;;;;;25.92;17.38;;;2.90;99.90;;;;;;5072214;28;20063;-71
2023/01/03 06:43:58;;;;;;;25.08;18.10;;;2.90;99.90;;;;;;5072283;28;20405;-71
2023/01/03 06:54:46;;;;;;;29.35;19.42;;;2.80;99.90;;;;;;5073035;28;20052;-71
2023/01/03 06:57:12;;;;;;;25.35;17.17;;;2.90;99.90;;;;;;5071808;28;20387;-71
2023/01/03 06:59:37;;;;;;;27.50;18.67;;;2.90;99.90;;;;;;5071565;28;20099;-71
2023/01/03 07:02:05;;;;;;;26.40;18.75;;;2.90;99.90;;;;;;5071852;28;20037;-71
2023/01/03 07:04:31;;;;;;;26.70;18.88;;;2.90;99.90;;;;;;5071864;28;20451;-71
2023/01/03 07:06:56;;;;;;;29.15;18.45;;;2.90;99.90;;;;;;5071857;28;20041;-71
2023/01/03 07:09:23;;;;;;;27.60;17.83;;;3.00;99.90;;;;;;5072042;28;20037;-71
2023/01/03 07:11:48;;;;;;;27.13;19.20;;;2.90;99.90;;;;;;5072069;28;20047;-71
2023/01/03 07:14:14;;;;;;;28.08;19.05;;;2.90;99.90;;;;;;5071919;28;20413;-71
2023/01/03 07:16:45;;;;;;;29.27;18.90;;;2.90;99.90;;;;;;5071969;28;20105;-71
2023/01/03 07:19:14;;;;;;;24.33;17.30;;;3.00;99.90;;;;;;5071641;28;20052;-71
2023/01/03 07:21:40;;;;;;;29.33;20.23;;;2.90;99.90;;;;;;5071688;28;20049;-71
2023/01/03 07:24:06;;;;;;;30.25;21.13;;;2.90;99.90;;;;;;5071611;28;20480;-71
2023/01/03 07:26:33;;;;;;;29.50;18.77;;;3.00;99.90;;;;;;5071524;28;20037;-71
2023/01/03 07:29:01;;;;;;;30.77;17.52;;;2.90;99.90;;;;;;5071509;28;20413;-71
2023/01/03 07:31:26;;;;;;;27.92;18.67;;;2.90;99.90;;;;;;5071631;28;20036;-71
2023/01/03 07:33:52;;;;;;;26.25;18.95;;;2.90;99.90;;;;;;5071554;28;20043;-71
2023/01/03 07:36:19;;;;;;;28.55;19.17;;;2.90;99.90;;;;;;5071708;28;20063;-70
2023/01/03 07:38:45;;;;;;;24.83;18.95;;;2.90;99.90;;;;;;5071769;28;20045;-71
2023/01/03 07:41:12;;;;;;;27.98;20.33;;;2.80;99.90;;;;;;5071508;28;20044;-71
2023/01/03 07:43:41;;;;;;;28.63;21.00;;;2.80;99.90;;;;;;5071695;28;20051;-71
2023/01/03 07:46:26;;;;;;;29.70;20.83;;;2.80;99.90;;;;;;5071422;28;20032;-71
2023/01/03 07:48:56;;;;;;;32.60;20.92;;;2.80;99.90;;;;;;5071268;28;20048;-71
2023/01/03 07:51:22;;;;;;;26.42;19.17;;;2.60;99.90;;;;;;5071366;28;20055;-71
2023/01/03 07:53:52;;;;;;;29.40;15.75;;;2.60;99.90;;;;;;5054839;28;20123;-71
2023/01/03 07:56:18;;;;;;;63.78;18.30;;;2.50;99.90;;;;;;5071318;28;20048;-71
2023/01/03 07:58:45;;;;;;;94.88;18.92;;;2.30;99.90;;;;;;5071783;28;20052;-71
2023/01/03 08:01:22;;;;;;;89.13;19.50;;;2.20;99.90;;;;;;5071367;28;20037;-71
2023/01/03 08:03:48;;;;;;;92.03;20.52;;;2.10;99.90;;;;;;5071290;28;20521;-71
2023/01/03 08:06:20;;;;;;;145.40;23.73;;;2.00;99.90;;;;;;5071389;28;20098;-70
2023/01/03 08:13:16;;;;;;;114.05;21.23;;;1.90;99.90;;;;;;5071477;28;20036;-71
2023/01/03 08:14:15;;;;;;;80.93;20.67;;;2.00;99.90;;;;;;5074708;28;20470;-71
2023/01/03 08:16:41;;;;;;;103.50;18.20;;;1.90;99.90;;;;;;5074991;28;20076;-71
2023/01/03 08:19:06;;;;;;;102.13;19.42;;;2.00;99.90;;;;;;5074690;28;20051;-71
2023/01/03 08:21:32;;;;;;;85.35;16.70;;;2.00;99.90;;;;;;5075872;28;20033;-71
2023/01/03 08:23:57;;;;;;;106.03;18.55;;;2.10;99.90;;;;;;5074595;28;20558;-71
2023/01/03 08:26:23;;;;;;;166.82;20.98;;;2.10;99.90;;;;;;5074498;28;20045;-70
2023/01/03 08:28:48;;;;;;;121.88;19.00;;;2.20;99.90;;;;;;5074471;28;20119;-71
2023/01/03 08:31:20;;;;;;;196.43;22.45;;;2.30;99.90;;;;;;5057791;28;20040;-71
2023/01/03 08:33:55;;;;;;;169.18;21.48;;;2.30;99.90;;;;;;5074458;28;20497;-71
2023/01/03 08:36:23;;;;;;;197.32;23.70;;;2.30;99.90;;;;;;5074319;28;20048;-71
2023/01/03 08:38:58;;;;;;;225.95;28.27;;;2.40;99.90;;;;;;5074298;28;20044;-71
2023/01/03 08:41:28;;;;;;;152.27;22.73;;;2.40;99.90;;;;;;5074627;28;20047;-71
2023/01/03 08:43:54;;;;;;;139.27;22.48;;;2.50;99.90;;;;;;5074250;28;20048;-71
2023/01/03 08:46:20;;;;;;;197.45;24.08;;;2.50;99.90;;;;;;5074364;28;20386;-70
2023/01/03 08:48:46;;;;;;;311.80;27.25;;;2.60;99.90;;;;;;5074051;28;20477;-71
2023/01/03 08:51:12;;;;;;;322.48;30.90;;;2.70;99.90;;;;;;5074416;28;20059;-71
2023/01/03 08:53:38;;;;;;;186.40;27.08;;;2.70;99.90;;;;;;5075589;28;20489;-71
2023/01/03 08:56:04;;;;;;;249.35;27.52;;;2.80;99.90;;;;;;5075407;28;20379;-71
2023/01/03 08:58:30;;;;;;;250.65;27.98;;;2.90;99.90;;;;;;5074074;28;20036;-71
2023/01/03 09:01:00;;;;;;;259.83;30.30;;;3.00;99.90;;;;;;5073778;28;20037;-72
2023/01/03 09:03:26;;;;;;;168.38;27.25;;;3.00;99.90;;;;;;5075236;28;20123;-72
2023/01/03 09:05:51;;;;;;;227.52;29.95;;;3.00;99.90;;;;;;5073798;28;20557;-71
2023/01/03 09:08:17;;;;;;;247.25;30.35;;;3.20;99.90;;;;;;5073690;28;20036;-71
2023/01/03 09:10:42;;;;;;;127.65;28.40;;;3.20;99.90;;;;;;5073992;28;20094;-71
2023/01/03 09:13:08;;;;;;;293.17;35.67;;;3.20;99.90;;;;;;5073663;28;20490;-72
2023/01/03 09:15:33;;;;;;;177.13;31.45;;;3.30;99.90;;;;;;5074160;28;20071;-71
2023/01/03 09:17:59;;;;;;;205.32;33.35;;;3.30;99.90;;;;;;5073841;28;20378;-71
2023/01/03 09:20:25;;;;;;;203.45;32.60;;;3.40;99.90;;;;;;5073478;28;20123;-71
2023/01/03 09:22:51;;;;;;;97.53;29.05;;;3.50;99.90;;;;;;5073114;28;20052;-71
2023/01/03 09:25:17;;;;;;;143.13;33.60;;;3.60;99.90;;;;;;5073691;28;20040;-71
2023/01/03 09:27:47;;;;;;;120.68;34.53;;;3.60;99.90;;;;;;5073570;28;20040;-71
2023/01/03 09:30:14;;;;;;;150.68;36.45;;;3.70;99.90;;;;;;5073265;28;20497;-71
2023/01/03 09:32:40;;;;;;;131.05;36.63;;;3.70;99.90;;;;;;5074550;28;20044;-71
2023/01/03 09:35:06;;;;;;;119.38;38.42;;;3.80;99.90;;;;;;5073211;28;20115;-71
2023/01/03 09:37:32;;;;;;;135.57;42.45;;;3.90;99.90;;;;;;5073372;28;20040;-71
2023/01/03 09:39:57;;;;;;;163.00;48.63;;;4.00;99.90;;;;;;5073147;28;20413;-71
2023/01/03 09:45:20;;;;;;;133.43;47.22;;;4.10;99.90;;;;;;5073101;28;20048;-71
2023/01/03 09:47:46;;;;;;;124.95;46.13;;;4.20;99.90;;;;;;5056261;28;20508;-71
2023/01/03 09:50:19;;;;;;;150.68;49.22;;;4.20;99.90;;;;;;5072896;28;20150;-71
2023/01/03 10:04:48;;;;;;;110.07;45.15;;;4.50;99.90;;;;;;5072717;28;20127;-71
2023/01/03 10:07:41;;;;;;;84.80;39.92;;;4.40;99.90;;;;;;5072807;28;20040;-71
2023/01/03 10:10:34;;;;;;;100.50;42.50;;;4.50;99.90;;;;;;5072854;28;20041;-71
2023/01/03 10:13:37;;;;;;;83.93;41.08;;;4.50;99.90;;;;;;5072547;28;20501;-71
2023/01/03 10:16:20;;;;;;;81.83;39.13;;;4.60;99.90;;;;;;5072463;28;20477;-72
2023/01/03 10:18:51;;;;;;;81.57;39.92;;;4.70;99.90;;;;;;5072668;28;20045;-72
2023/01/03 10:21:30;;;;;;;78.75;39.13;;;4.60;99.90;;;;;;5072402;28;20570;-72
2023/01/03 10:23:55;;;;;;;70.45;38.92;;;4.70;99.90;;;;;;5072404;28;20036;-72
2023/01/03 10:26:25;;;;;;;70.30;38.50;;;4.80;99.90;;;;;;5072286;28;20051;-71
2023/01/03 10:28:51;;;;;;;71.57;38.53;;;4.80;99.90;;;;;;5072759;28;20040;-72
2023/01/03 10:31:35;;;;;;;67.65;37.75;;;4.80;99.90;;;;;;5072508;28;20040;-72
2023/01/03 10:34:04;;;;;;;66.38;37.70;;;4.90;99.90;;;;;;5072194;28;20076;-71
2023/01/03 10:36:30;;;;;;;77.18;39.53;;;4.90;99.90;;;;;;5072071;28;20040;-72
2023/01/03 10:39:08;;;;;;;78.57;40.03;;;5.00;99.90;;;;;;5072203;28;20512;-72
2023/01/03 10:41:45;;;;;;;71.85;38.30;;;5.00;99.90;;;;;;5072184;28;20413;-72
2023/01/03 10:44:25;;;;;;;75.43;39.65;;;5.10;99.90;;;;;;5072305;28;20556;-72
2023/01/03 10:46:53;;;;;;;68.28;37.60;;;5.10;99.90;;;;;;5072120;28;20493;-72
2023/01/03 10:49:26;;;;;;;71.10;39.13;;;5.20;99.90;;;;;;5072026;28;20127;-72
2023/01/03 10:52:13;;;;;;;74.70;39.10;;;5.30;99.90;;;;;;5056302;28;20115;-72
2023/01/03 10:54:52;;;;;;;74.13;40.80;;;5.40;99.90;;;;;;5072446;28;20044;-71
2023/01/03 10:57:38;;;;;;;73.63;37.90;;;5.60;99.90;;;;;;5055839;28;20040;-71
2023/01/03 11:00:29;;;;;;;67.45;37.92;;;5.70;99.90;;;;;;5055456;28;20052;-72
2023/01/03 11:03:20;;;;;;;64.35;36.42;;;5.80;99.90;;;;;;5064177;28;20053;-72
2023/01/03 11:06:07;;;;;;;55.20;33.75;;;5.70;99.90;;;;;;5054938;28;20052;-72
2023/01/03 11:08:44;;;;;;;61.67;33.28;;;5.70;99.90;;;;;;5071934;28;20068;-72
2023/01/03 11:11:32;;;;;;;55.50;33.85;;;5.70;99.90;;;;;;5072106;28;20044;-72
2023/01/03 11:14:15;;;;;;;63.15;33.20;;;5.80;99.90;;;;;;5071988;28;20039;-72
2023/01/03 11:16:41;;;;;;;62.28;33.40;;;5.80;99.90;;;;;;5071957;28;20036;-72
2023/01/03 11:19:14;;;;;;;61.42;33.90;;;5.70;99.90;;;;;;5055298;28;20037;-72
2023/01/03 11:22:09;;;;;;;;;;;5.80;99.90;;;;;;5072270;28;20048;-72
2023/01/03 11:25:10;;;;;;;60.58;34.75;;;5.80;99.90;;;;;;4995381;28;19917;-72
2023/01/03 11:27:58;;;;;;;59.05;32.35;;;5.80;99.90;;;;;;4937034;29;20039;-72
2023/01/03 11:30:39;;;;;;;53.03;30.25;;;5.80;99.90;;;;;;4921522;29;20054;-72
2023/01/03 11:33:16;;;;;;;50.55;30.50;;;5.80;99.90;;;;;;4953052;29;20046;-72
2023/01/03 11:35:54;;;;;;;48.15;29.75;;;5.90;99.90;;;;;;4937016;29;20048;-72
2023/01/03 11:38:43;;;;;;;43.38;28.42;;;5.80;99.90;;;;;;4936687;29;20039;-72
2023/01/03 11:41:23;;;;;;;49.95;28.45;;;5.90;99.90;;;;;;4936820;29;20595;-72
2023/01/03 11:44:17;;;;;;;49.10;29.08;;;5.90;99.90;;;;;;4937055;29;20066;-72
2023/01/03 11:47:18;;;;;;;45.50;27.23;;;5.90;99.90;;;;;;4938349;29;20043;-72
2023/01/03 11:50:05;;;;;;;45.28;27.25;;;6.00;99.90;;;;;;4940426;29;20417;-72
2023/01/03 11:52:44;;;;;;;40.00;25.77;;;6.00;99.90;;;;;;4940495;29;20102;-71
2023/01/03 11:55:30;;;;;;;39.72;25.52;;;5.90;99.90;;;;;;4940674;29;20078;-72
2023/01/03 11:58:02;;;;;;;41.25;24.60;;;6.00;99.90;;;;;;4940438;29;20493;-71
2023/01/03 12:00:39;;;;;;;43.60;24.88;;;6.00;99.90;;;;;;4938227;28;20089;-71
2023/01/03 12:03:14;;;;;;;43.25;24.85;;;6.00;99.90;;;;;;5075064;28;20040;-71
2023/01/03 12:05:45;;;;;;;41.92;24.95;;;6.00;99.90;;;;;;5074984;28;20041;-72
2023/01/03 12:08:11;;;;;;;44.70;26.63;;;6.00;99.90;;;;;;5074906;28;20040;-71
2023/01/03 12:10:55;;;;;;;43.13;24.83;;;6.00;99.90;;;;;;5058357;28;20131;-71
2023/01/03 12:13:56;;;;;;;40.45;24.88;;;6.00;99.90;;;;;;5075083;28;20040;-72
2023/01/03 12:16:42;;;;;;;36.80;24.65;;;6.00;99.90;;;;;;5075238;28;20070;-71
2023/01/03 12:19:23;;;;;;;40.58;24.60;;;6.00;99.90;;;;;;5075114;28;20094;-71
2023/01/03 12:22:01;;;;;;;43.65;24.15;;;6.00;99.90;;;;;;5074711;28;20041;-71
2023/01/03 12:24:27;;;;;;;42.53;26.05;;;6.00;99.90;;;;;;5074880;28;20040;-71
2023/01/03 12:26:56;;;;;;;48.72;25.63;;;6.10;99.90;;;;;;5074494;28;20032;-71
2023/01/03 12:29:53;;;;;;;45.55;25.35;;;6.10;99.90;;;;;;5074510;28;20039;-71
2023/01/03 12:32:35;;;;;;;43.45;24.60;;;6.10;99.90;;;;;;5074842;28;20066;-71
2023/01/03 12:35:36;;;;;;;40.95;24.45;;;6.10;99.90;;;;;;5074806;28;20390;-71
2023/01/03 12:38:03;;;;;;;39.42;24.15;;;6.10;99.90;;;;;;5074375;28;20052;-71
2023/01/03 12:40:54;;;;;;;51.22;24.92;;;6.10;99.90;;;;;;5057644;28;20040;-71
2023/01/03 12:43:41;;;;;;;46.60;24.35;;;6.20;99.90;;;;;;5074565;28;20513;-71
2023/01/03 12:46:13;;;;;;;50.38;23.95;;;6.10;99.90;;;;;;5075847;28;20037;-71
2023/01/03 12:49:04;;;;;;;54.85;26.83;;;6.20;99.90;;;;;;5074066;28;20041;-71
2023/01/03 12:51:30;;;;;;;50.45;24.80;;;6.20;99.90;;;;;;5074148;28;20044;-71
2023/01/03 12:54:34;;;;;;;39.15;22.63;;;6.20;99.90;;;;;;5074147;28;20051;-71
2023/01/03 12:57:17;;;;;;;38.53;22.30;;;6.20;99.90;;;;;;5074076;28;20123;-71
2023/01/03 13:00:10;;;;;;;46.17;23.25;;;6.30;99.90;;;;;;5073594;28;20047;-71
2023/01/03 13:02:47;;;;;;;38.73;21.87;;;6.30;99.90;;;;;;5074089;28;20049;-70
2023/01/03 13:05:37;;;;;;;41.40;22.48;;;6.30;99.90;;;;;;5074231;28;20032;-71
2023/01/03 13:08:05;;;;;;;42.83;23.20;;;6.30;99.90;;;;;;5073865;28;20040;-71
2023/01/03 13:10:34;;;;;;;37.55;21.20;;;6.30;99.90;;;;;;5074134;28;20040;-71
2023/01/03 13:13:00;;;;;;;34.67;21.63;;;6.40;99.90;;;;;;5057261;28;20048;-71
2023/01/03 13:15:30;;;;;;;38.20;21.95;;;6.40;99.90;;;;;;5073858;28;20551;-71
2023/01/03 13:18:16;;;;;;;45.22;22.10;;;6.50;99.90;;;;;;5073745;28;20068;-71
2023/01/03 13:20:42;;;;;;;40.10;22.33;;;6.50;99.90;;;;;;5074046;28;20041;-73
2023/01/03 13:23:52;;;;;;;41.72;21.77;;;6.40;99.90;;;;;;5073540;28;20055;-72
2023/01/03 13:26:21;;;;;;;41.17;21.90;;;6.50;99.90;;;;;;5073294;28;20123;-72
2023/01/03 13:28:47;;;;;;;39.08;21.38;;;6.50;99.90;;;;;;5074145;28;20032;-73
2023/01/03 13:31:19;;;;;;;40.95;21.30;;;6.50;99.90;;;;;;5074271;28;20106;-73
2023/01/03 13:33:51;;;;;;;41.10;22.37;;;6.50;99.90;;;;;;5073564;28;20102;-72
2023/01/03 13:36:16;;;;;;;40.15;21.35;;;6.60;99.90;;;;;;5073292;28;20037;-72
2023/01/03 13:38:42;;;;;;;37.60;20.98;;;6.60;99.90;;;;;;5073271;28;20039;-72
2023/01/03 13:41:35;;;;;;;38.80;20.35;;;6.70;99.90;;;;;;5073169;28;20053;-72
2023/01/03 13:44:22;;;;;;;40.27;21.60;;;6.70;99.90;;;;;;5073244;28;20047;-72
2023/01/03 13:46:49;;;;;;;37.05;20.85;;;6.70;99.90;;;;;;5073338;28;20076;-72
2023/01/03 13:49:24;;;;;;;37.75;21.25;;;6.70;99.90;;;;;;5072982;28;20112;-72
2023/01/03 13:51:55;;;;;;;34.42;20.35;;;6.80;99.90;;;;;;5073037;28;20475;-72
2023/01/03 13:54:20;;;;;;;37.63;21.27;;;6.80;99.90;;;;;;5072967;28;20043;-72
2023/01/03 13:56:51;;;;;;;37.90;19.83;;;6.70;99.90;;;;;;5073123;28;20111;-72
2023/01/03 13:59:42;;;;;;;39.00;20.73;;;6.80;99.90;;;;;;5072963;28;20044;-72
2023/01/03 14:02:11;;;;;;;28.20;18.30;;;6.80;99.90;;;;;;5072847;28;20120;-72
2023/01/03 14:05:11;;;;;;;29.92;19.23;;;6.80;99.90;;;;;;5072985;28;20072;-72
2023/01/03 14:07:58;;;;;;;30.95;18.92;;;6.80;99.90;;;;;;5072785;28;20449;-72